Terminal Aerodrome Forecast
Issued by NWS

Home | Current Version | Previous Version | Text Only | Print | Product List | Glossary On
Versions: 1 2 3 4 5 6 7 8 9 10 11 12 13 14 15 16 17 18 19 20 21 22 23 24 25
296
FTUS43 KEAX 151726
TAFMKC
TAF
KMKC 151726Z 1518/1618 07005KT 5SM -FZRA BR OVC005
      TEMPO 1518/1522 5SM -RA OVC005
     FM152200 08006KT 5SM BR VCSH OVC004
     FM160700 07005KT 3SM -RA BR OVC004=

USA.gov is the U.S. government's official web portal to all federal, state and local government web resources and services.